Airfield :
LOGIN :

Register | Disclaimer

   EN    FR    IT 

 










Legend :    VFR   Marginal VFR   IFR   Intensive IFR   Very Intensive IFR
Visi :
Ceiling :
>= 8 km
>= 3000ft
5 to 8 km
1000 to 3000 ft
1500m to 5 km
500 to 1000 ft
800 to 1500m
200 to 500 ft
< 800m
< 200 ft
Symbols :   Thunderstorms  Fog  Heavy snow  Heavy precipitations  Wind > 20 kt
SIGMETs :     Misc.  Thunderstorms  Icing  Turbulence  Mountain Waves  Volcanic Ashes






- Airport Elevation : 49 ft
- IATA code : SEN


EGMC - Southend

CURRENT METAR :
  • 102320Z 24010KT 9999 FEW038 08/07 Q1007

EXPIRED METARs :
  • 102250Z 25015KT 9999 FEW038 09/07 Q1007
  • 102220Z 25011KT 9999 FEW019 SCT037 09/08 Q1006
  • 102150Z 26017KT 9000 -RA FEW008 BKN025 09/08 Q1005
  • 102120Z 24019KT 5000 RA BKN006 BKN017 11/10 Q1005
  • 102050Z 20022KT 8000 -RA FEW008 BKN010 11/10 Q1004

TAF TAF EGMC
Valid from the 11 at 00:00 until the 11 at 09:00 UTC


102301Z 1100/1109 27014KT CAVOK
BECMG 1105/1108 21009KT



MET'MAP, your aeronautical weather chart ! - Copyright ORBIFLY December 2007 - Disclaimer

ORBIFLY MET'MAP TEAM :

Programming & Development : Alexandra Zaïnal
Concept & original design : Baudouin d'Aumeries
Assistance for programming : Marc-Olivier Méhu
Technical & hardware support : Manuel Goepfert

Contact : metmap@orbifly.com




SOURCES & CREDITS :

   NOAA